Time;durP1;ratioP1;P1;durP2;ratioP2;P2;SDS_P1;SDS_P2;PMS_P1;PMS_P2;Temp;Humidity;BMP_temperature;BMP_pressure;BME280_temperature;BME280_humidity;BME280_pressure;Samples;Min_cycle;Max_cycle;Signal;HPM_P1;HPM_P2
2022/05/11 00:00:46;;;;;;;15.52;4.72;;;17.30;98.50;;;;;;6316680;22;20034;-78
2022/05/11 00:03:13;;;;;;;14.18;4.45;;;17.30;98.50;;;;;;6341680;22;20009;-78
2022/05/11 00:05:41;;;;;;;15.90;4.72;;;17.30;98.50;;;;;;6369276;22;20030;-78
2022/05/11 00:08:08;;;;;;;17.02;4.63;;;17.30;98.50;;;;;;6342302;22;20013;-78
2022/05/11 00:10:35;;;;;;;19.83;4.88;;;17.20;98.50;;;;;;6315423;22;20002;-78
2022/05/11 00:13:03;;;;;;;23.13;5.88;;;17.20;98.50;;;;;;6342253;22;20011;-78
2022/05/11 00:15:30;;;;;;;18.15;5.40;;;17.20;98.50;;;;;;6342317;22;20030;-79
2022/05/11 00:17:57;;;;;;;18.90;4.43;;;17.20;98.40;;;;;;6369586;22;20026;-78
2022/05/11 00:20:24;;;;;;;14.30;4.78;;;17.20;98.40;;;;;;6341857;22;20300;-78
2022/05/11 00:22:58;;;;;;;18.10;4.60;;;17.10;98.40;;;;;;6341591;22;20081;-78
2022/05/11 00:25:26;;;;;;;13.75;4.22;;;17.10;98.40;;;;;;6341629;22;19994;-78
2022/05/11 00:27:57;;;;;;;12.98;3.58;;;17.10;98.40;;;;;;6315540;22;20091;-78
2022/05/11 00:30:25;;;;;;;11.98;3.95;;;17.10;98.40;;;;;;6342092;22;20005;-78
2022/05/11 00:32:59;;;;;;;10.57;2.75;;;17.10;98.40;;;;;;6342399;22;20022;-78
2022/05/11 00:35:30;;;;;;;13.35;2.83;;;17.10;98.40;;;;;;6341035;22;19998;-78
2022/05/11 00:37:58;;;;;;;12.63;3.10;;;17.10;98.50;;;;;;6341591;22;19998;-78
2022/05/11 00:40:25;;;;;;;9.35;2.75;;;17.10;98.40;;;;;;6342287;22;20009;-78
2022/05/11 00:42:53;;;;;;;13.02;2.95;;;17.10;98.40;;;;;;6315804;22;20021;-79
2022/05/11 00:45:20;;;;;;;14.18;3.00;;;17.00;98.40;;;;;;6341964;22;20002;-78
2022/05/11 00:48:00;;;;;;;11.27;3.17;;;17.10;98.40;;;;;;6315810;22;20400;-79
2022/05/11 00:50:33;;;;;;;10.68;2.42;;;17.00;98.40;;;;;;6315964;22;20034;-78
2022/05/11 00:53:11;;;;;;;14.88;2.72;;;17.10;98.50;;;;;;6291227;22;20103;-79
2022/05/11 00:55:54;;;;;;;15.52;2.72;;;17.00;98.50;;;;;;6292048;22;20028;-79
2022/05/11 00:58:33;;;;;;;11.60;2.47;;;17.10;98.50;;;;;;6316986;22;20391;-78
2022/05/11 01:01:01;;;;;;;11.63;2.03;;;17.10;98.50;;;;;;6343104;22;20363;-78
2022/05/11 01:03:42;;;;;;;15.55;2.33;;;17.10;98.50;;;;;;6369020;22;20320;-78
2022/05/11 01:06:10;;;;;;;17.23;2.42;;;17.00;98.50;;;;;;6342118;22;20077;-75
2022/05/11 01:08:37;;;;;;;16.33;2.55;;;17.00;98.50;;;;;;6341329;22;20056;-77
2022/05/11 01:11:04;;;;;;;11.60;2.33;;;17.00;98.50;;;;;;6341742;22;20391;-76
2022/05/11 01:13:32;;;;;;;15.75;2.20;;;16.90;98.50;;;;;;6315482;22;20002;-76
2022/05/11 01:16:00;;;;;;;13.88;2.08;;;16.90;98.50;;;;;;6341444;22;20002;-76
2022/05/11 01:18:27;;;;;;;14.35;2.40;;;17.00;98.50;;;;;;6368969;22;20511;-76
2022/05/11 01:20:54;;;;;;;19.02;2.65;;;17.00;98.50;;;;;;6341140;22;20034;-77
2022/05/11 01:23:39;;;;;;;14.68;2.60;;;16.90;98.50;;;;;;6368824;22;19998;-77
2022/05/11 01:26:06;;;;;;;20.42;3.00;;;16.90;98.50;;;;;;6368292;22;20014;-75
2022/05/11 01:28:34;;;;;;;26.30;3.17;;;17.00;98.60;;;;;;6368604;22;20002;-75
2022/05/11 01:31:03;;;;;;;19.15;2.63;;;17.00;98.60;;;;;;6314963;22;20432;-75
2022/05/11 01:33:31;;;;;;;22.80;3.10;;;16.90;98.60;;;;;;6341840;22;20005;-75
2022/05/11 01:36:21;;;;;;;21.65;2.25;;;17.00;98.60;;;;;;6341043;22;20003;-75
2022/05/11 01:38:50;;;;;;;19.65;2.17;;;16.90;98.60;;;;;;6341572;22;20048;-75
2022/05/11 01:41:30;;;;;;;17.23;2.40;;;16.90;98.60;;;;;;6368584;22;20475;-76
2022/05/11 01:43:57;;;;;;;19.52;2.33;;;16.90;98.60;;;;;;6341093;22;19999;-76
2022/05/11 01:46:24;;;;;;;13.88;2.45;;;16.80;98.50;;;;;;6368875;22;20459;-76
2022/05/11 01:48:52;;;;;;;12.20;1.65;;;16.80;98.50;;;;;;6368815;22;20059;-76
2022/05/11 01:51:19;;;;;;;13.05;1.95;;;16.80;98.50;;;;;;6340974;22;20002;-76
2022/05/11 01:53:47;;;;;;;21.05;2.40;;;16.80;98.50;;;;;;6341120;22;20089;-75
2022/05/11 01:56:21;;;;;;;14.07;2.20;;;16.70;98.50;;;;;;6368679;22;20336;-77
2022/05/11 01:58:49;;;;;;;16.58;2.40;;;16.70;98.50;;;;;;6368640;22;20032;-78
2022/05/11 02:01:16;;;;;;;18.52;2.80;;;16.70;98.50;;;;;;6315571;22;20017;-77
2022/05/11 02:03:44;;;;;;;22.33;2.33;;;16.70;98.60;;;;;;6340776;22;20002;-77
2022/05/11 02:08:56;;;;;;;18.80;2.88;;;16.80;98.60;;;;;;6368922;22;20333;-77
2022/05/11 02:11:23;;;;;;;19.92;2.40;;;16.80;98.60;;;;;;6340950;22;20474;-77
2022/05/11 02:13:50;;;;;;;23.33;2.78;;;16.80;98.60;;;;;;6340301;22;19998;-77
2022/05/11 02:16:17;;;;;;;19.70;2.47;;;16.90;98.70;;;;;;6340997;22;19994;-76
2022/05/11 02:18:44;;;;;;;28.02;2.72;;;17.00;98.70;;;;;;6340411;22;20006;-77
2022/05/11 02:21:12;;;;;;;61.95;6.30;;;17.00;98.70;;;;;;6340641;22;20003;-77
2022/05/11 02:23:39;;;;;;;27.38;3.28;;;17.10;98.70;;;;;;6314924;22;20516;-76
2022/05/11 02:26:09;;;;;;;16.65;2.20;;;17.10;98.80;;;;;;6369012;22;20009;-76
2022/05/11 02:28:36;;;;;;;19.70;2.13;;;17.10;98.80;;;;;;6316471;22;20077;-76
2022/05/11 02:31:03;;;;;;;20.23;2.05;;;17.20;98.80;;;;;;6368375;22;20018;-76
2022/05/11 02:33:30;;;;;;;15.13;2.00;;;17.20;98.80;;;;;;6340789;22;20025;-77
2022/05/11 02:35:57;;;;;;;11.77;1.88;;;17.10;98.80;;;;;;6368497;22;19998;-76
2022/05/11 02:38:27;;;;;;;13.70;2.13;;;17.10;98.70;;;;;;6314985;22;20077;-76
2022/05/11 02:40:54;;;;;;;11.40;1.80;;;17.10;98.70;;;;;;6368975;22;20391;-77
2022/05/11 02:43:21;;;;;;;10.95;1.77;;;17.10;98.70;;;;;;6342587;22;20005;-77
2022/05/11 02:45:49;;;;;;;11.30;1.80;;;17.00;98.70;;;;;;6315400;22;20002;-77
2022/05/11 02:48:19;;;;;;;9.90;1.38;;;17.00;98.50;;;;;;6315503;22;20006;-77
2022/05/11 02:50:49;;;;;;;9.98;1.60;;;16.90;98.50;;;;;;6315900;22;20028;-77
2022/05/11 02:53:16;;;;;;;12.38;1.33;;;16.90;98.40;;;;;;6317471;22;20013;-77
2022/05/11 02:55:45;;;;;;;9.65;1.27;;;16.80;98.40;;;;;;6317134;22;20047;-77
2022/05/11 02:58:13;;;;;;;8.93;1.38;;;16.80;98.20;;;;;;6342783;22;20018;-77
2022/05/11 03:00:41;;;;;;;8.80;1.15;;;16.80;98.00;;;;;;6342283;22;20439;-78
2022/05/11 03:03:08;;;;;;;12.70;1.65;;;16.80;98.00;;;;;;6317038;22;19998;-78
2022/05/11 03:05:35;;;;;;;7.90;1.40;;;16.90;98.00;;;;;;6342487;22;19998;-78
2022/05/11 03:08:03;;;;;;;11.15;2.13;;;16.90;97.80;;;;;;6316281;22;20014;-78
2022/05/11 03:10:30;;;;;;;24.48;4.22;;;17.00;97.80;;;;;;6370050;22;19995;-78
2022/05/11 03:12:57;;;;;;;9.90;2.30;;;17.10;97.90;;;;;;6370016;22;19999;-78
2022/05/11 03:15:24;;;;;;;6.30;1.50;;;17.10;97.80;;;;;;6342534;22;20034;-78
2022/05/11 03:17:52;;;;;;;8.57;1.40;;;17.20;97.90;;;;;;6342654;22;19998;-78
2022/05/11 03:20:21;;;;;;;8.98;1.55;;;17.20;97.80;;;;;;6370590;22;20172;-79
2022/05/11 03:22:50;;;;;;;5.43;1.40;;;17.20;97.80;;;;;;6342056;22;20076;-78
2022/05/11 03:25:17;;;;;;;7.15;1.83;;;17.20;97.60;;;;;;6369470;22;20385;-78
2022/05/11 03:27:44;;;;;;;8.27;1.50;;;17.20;97.50;;;;;;6315067;22;20093;-79
2022/05/11 03:30:12;;;;;;;4.32;1.13;;;17.20;97.60;;;;;;6315396;22;20027;-78
2022/05/11 03:35:24;;;;;;;8.88;1.30;;;17.30;97.60;;;;;;6346161;22;20344;-78
2022/05/11 03:37:52;;;;;;;4.72;1.27;;;17.30;97.60;;;;;;6341691;22;20010;-78
2022/05/11 03:40:19;;;;;;;7.32;1.50;;;17.30;97.50;;;;;;6341948;22;20082;-78
2022/05/11 03:42:46;;;;;;;6.35;1.75;;;17.30;97.40;;;;;;6341563;22;20002;-78
2022/05/11 03:45:18;;;;;;;6.15;1.38;;;17.30;97.40;;;;;;6369498;22;20086;-78
2022/05/11 03:47:46;;;;;;;5.10;1.40;;;17.40;97.40;;;;;;6341536;22;20011;-78
2022/05/11 03:50:14;;;;;;;7.03;1.63;;;17.50;97.40;;;;;;6338018;22;20002;-78
2022/05/11 03:52:41;;;;;;;7.25;1.33;;;17.50;97.40;;;;;;6340821;22;20006;-77
2022/05/11 03:55:10;;;;;;;6.95;1.48;;;17.50;97.50;;;;;;6341059;22;20033;-77
2022/05/11 03:57:38;;;;;;;5.63;1.40;;;17.50;97.50;;;;;;6368462;22;19998;-77
2022/05/11 04:00:08;;;;;;;5.65;1.70;;;17.50;97.50;;;;;;6341112;22;20002;-77
2022/05/11 04:02:35;;;;;;;11.98;1.60;;;17.50;97.60;;;;;;6315902;22;19998;-77
2022/05/11 04:05:03;;;;;;;9.20;1.67;;;17.50;97.60;;;;;;6340778;22;20021;-77
2022/05/11 04:07:30;;;;;;;5.97;1.42;;;17.50;97.60;;;;;;6314837;22;20011;-77
2022/05/11 04:09:57;;;;;;;5.90;1.50;;;17.50;97.70;;;;;;6341539;22;20401;-77
2022/05/11 04:12:26;;;;;;;5.70;1.17;;;17.50;97.70;;;;;;6368981;22;20077;-77
2022/05/11 04:14:54;;;;;;;7.80;1.63;;;17.40;97.70;;;;;;6341814;22;20063;-77
2022/05/11 04:17:21;;;;;;;4.57;1.42;;;17.40;97.70;;;;;;6341022;22;20375;-76
2022/05/11 04:19:48;;;;;;;4.68;1.30;;;17.40;97.70;;;;;;6338764;22;20447;-77
2022/05/11 04:22:15;;;;;;;8.50;1.85;;;17.40;97.70;;;;;;6368684;22;20022;-77
2022/05/11 04:24:42;;;;;;;10.00;2.20;;;17.40;97.70;;;;;;6341060;22;20353;-76
2022/05/11 04:27:10;;;;;;;8.80;2.90;;;17.40;97.80;;;;;;6341002;22;20021;-77
2022/05/11 04:29:39;;;;;;;12.07;3.00;;;17.50;97.80;;;;;;6368790;22;19994;-77
2022/05/11 04:32:07;;;;;;;13.50;3.75;;;17.50;97.80;;;;;;6368594;22;20340;-76
2022/05/11 04:34:35;;;;;;;12.75;3.25;;;17.50;97.90;;;;;;6315522;22;20463;-76
2022/05/11 04:37:02;;;;;;;13.88;2.90;;;17.50;97.90;;;;;;6367971;22;20004;-76
2022/05/11 04:39:30;;;;;;;9.13;2.13;;;17.60;97.90;;;;;;6340263;22;20043;-76
2022/05/11 04:41:57;;;;;;;10.57;2.55;;;17.60;97.90;;;;;;6367699;22;20124;-76
2022/05/11 04:44:24;;;;;;;12.48;2.40;;;17.50;98.00;;;;;;6340749;22;20006;-76
2022/05/11 04:46:51;;;;;;;12.05;2.05;;;17.60;98.00;;;;;;6368397;22;20017;-76
2022/05/11 04:49:23;;;;;;;11.15;2.28;;;17.60;98.00;;;;;;6340961;22;20085;-75
2022/05/11 04:52:02;;;;;;;8.73;2.17;;;17.60;98.00;;;;;;6364814;22;20016;-69
2022/05/11 04:54:30;;;;;;;6.95;2.45;;;17.60;98.00;;;;;;6336949;22;20382;-69
2022/05/11 04:56:57;;;;;;;8.77;2.58;;;17.60;98.00;;;;;;6363555;22;20073;-69
2022/05/11 04:59:24;;;;;;;10.63;2.45;;;17.60;98.00;;;;;;6337389;22;20009;-69
2022/05/11 05:01:51;;;;;;;8.93;2.17;;;17.60;98.00;;;;;;6364810;22;20333;-69
2022/05/11 05:04:20;;;;;;;7.95;2.08;;;17.60;98.00;;;;;;6364770;22;20052;-68
2022/05/11 05:06:47;;;;;;;14.88;2.53;;;17.60;98.00;;;;;;6337044;22;20010;-69
2022/05/11 05:09:14;;;;;;;11.68;2.40;;;17.60;98.00;;;;;;6365021;22;20003;-69
2022/05/11 05:11:42;;;;;;;11.23;1.95;;;17.60;98.00;;;;;;6364645;22;20006;-72
2022/05/11 05:14:11;;;;;;;11.85;2.20;;;17.60;98.10;;;;;;6336904;22;20427;-74
2022/05/11 05:16:38;;;;;;;13.52;3.00;;;17.60;98.10;;;;;;6364956;22;20089;-71
2022/05/11 05:19:05;;;;;;;12.65;2.80;;;17.60;98.10;;;;;;6364963;22;20056;-72
2022/05/11 05:21:33;;;;;;;11.48;2.00;;;17.60;98.10;;;;;;6364953;22;20002;-72
2022/05/11 05:24:00;;;;;;;8.48;2.30;;;17.60;98.10;;;;;;6310934;22;20003;-72
2022/05/11 05:26:27;;;;;;;18.00;3.13;;;17.60;98.10;;;;;;6337223;22;20014;-74
2022/05/11 05:31:40;;;;;;;20.77;4.13;;;17.50;98.20;;;;;;6342329;22;20079;-76
2022/05/11 05:34:07;;;;;;;17.23;3.13;;;17.40;98.20;;;;;;6337047;22;19995;-75
2022/05/11 05:36:38;;;;;;;13.65;2.83;;;17.40;98.30;;;;;;6362288;22;20051;-75
2022/05/11 05:39:06;;;;;;;16.25;3.13;;;17.30;98.30;;;;;;6337446;22;20439;-75
2022/05/11 05:41:33;;;;;;;12.95;2.50;;;17.40;98.40;;;;;;6285234;22;20382;-76
2022/05/11 05:44:00;;;;;;;21.02;3.20;;;17.30;98.40;;;;;;6364362;22;20002;-75
2022/05/11 05:46:28;;;;;;;14.38;2.80;;;17.30;98.40;;;;;;6284344;22;20002;-76
2022/05/11 05:48:55;;;;;;;9.98;2.50;;;17.30;98.40;;;;;;6309991;22;20006;-75
2022/05/11 05:51:23;;;;;;;11.00;2.13;;;17.30;98.50;;;;;;6363845;22;20322;-75
2022/05/11 05:53:51;;;;;;;13.05;2.40;;;17.30;98.50;;;;;;6311684;22;20036;-75
2022/05/11 05:56:18;;;;;;;8.20;2.13;;;17.30;98.50;;;;;;6337238;22;20455;-75
2022/05/11 05:58:45;;;;;;;13.88;2.70;;;17.20;98.50;;;;;;6310486;22;20002;-76
2022/05/11 06:01:13;;;;;;;13.43;2.60;;;17.30;98.50;;;;;;6310981;22;20052;-74
2022/05/11 06:03:41;;;;;;;15.13;2.45;;;17.20;98.60;;;;;;6337172;22;19994;-74
2022/05/11 06:06:08;;;;;;;11.60;2.30;;;17.20;98.60;;;;;;6364677;22;20074;-75
2022/05/11 06:08:36;;;;;;;15.20;2.53;;;17.20;98.60;;;;;;6336672;22;20013;-76
2022/05/11 06:11:04;;;;;;;11.40;2.05;;;17.20;98.50;;;;;;6364308;22;20006;-75
2022/05/11 06:13:32;;;;;;;17.38;2.30;;;17.20;98.50;;;;;;6285559;22;20006;-74
2022/05/11 06:15:59;;;;;;;15.85;2.50;;;17.20;98.60;;;;;;6284919;22;20097;-75
2022/05/11 06:18:26;;;;;;;8.73;2.78;;;17.20;98.60;;;;;;6364551;22;20006;-78
2022/05/11 06:20:54;;;;;;;10.82;2.20;;;17.20;98.60;;;;;;6311046;22;20350;-78
2022/05/11 06:23:21;;;;;;;14.88;2.30;;;17.20;98.60;;;;;;6364410;22;20081;-77
2022/05/11 06:25:49;;;;;;;12.57;2.30;;;17.20;98.60;;;;;;6336904;22;20080;-76
2022/05/11 06:28:17;;;;;;;9.43;2.05;;;17.20;98.60;;;;;;6286333;22;20015;-77
2022/05/11 06:30:44;;;;;;;12.27;2.28;;;17.20;98.70;;;;;;6365681;22;20015;-77
2022/05/11 06:33:11;;;;;;;9.27;2.08;;;17.20;98.60;;;;;;6366487;22;20027;-75
2022/05/11 06:35:38;;;;;;;14.45;2.42;;;17.10;98.60;;;;;;6336156;22;20115;-75
2022/05/11 06:38:06;;;;;;;12.32;2.03;;;17.10;98.60;;;;;;6338815;22;20029;-75
2022/05/11 06:40:34;;;;;;;16.08;1.88;;;17.10;98.70;;;;;;6286948;22;20002;-75
2022/05/11 06:43:01;;;;;;;11.93;1.92;;;17.10;98.70;;;;;;6287064;22;20010;-78
2022/05/11 06:45:31;;;;;;;10.90;2.38;;;17.10;98.70;;;;;;6337953;22;20002;-77
2022/05/11 06:47:59;;;;;;;17.48;2.75;;;17.00;98.70;;;;;;6365972;22;20063;-78
2022/05/11 06:50:27;;;;;;;19.50;2.35;;;17.10;98.80;;;;;;6312893;22;20069;-78
2022/05/11 06:52:55;;;;;;;11.35;1.83;;;17.10;98.80;;;;;;6338620;22;20041;-79
2022/05/11 07:00:52;;;;;;;5.18;1.10;;;17.00;98.70;;;;;;6321508;22;20499;-75
2022/05/11 07:03:20;;;;;;;14.65;2.10;;;17.00;98.70;;;;;;6366206;22;19998;-76
2022/05/11 07:05:47;;;;;;;8.65;1.60;;;17.00;98.70;;;;;;6366047;22;20010;-78
2022/05/11 07:08:14;;;;;;;12.07;2.40;;;17.10;98.80;;;;;;6365970;22;20092;-78
2022/05/11 07:12:17;;;;;;;9.43;1.35;;;17.00;98.80;;;;;;6366305;22;20005;-77
2022/05/11 07:13:32;;;;;;;16.52;1.70;;;17.10;98.80;;;;;;6365617;22;20106;-77
2022/05/11 07:15:59;;;;;;;15.32;2.40;;;17.00;98.70;;;;;;6365958;22;20025;-78
2022/05/11 07:18:26;;;;;;;23.90;2.92;;;17.10;98.80;;;;;;6366288;22;20006;-75
2022/05/11 07:20:53;;;;;;;18.27;2.78;;;17.10;98.80;;;;;;6337691;22;20306;-75
2022/05/11 07:23:21;;;;;;;16.33;3.10;;;17.10;98.80;;;;;;6337747;22;19999;-78
2022/05/11 07:25:48;;;;;;;16.75;2.83;;;17.10;98.70;;;;;;6365943;22;20006;-77
2022/05/11 07:28:16;;;;;;;19.15;3.17;;;17.10;98.70;;;;;;6312262;22;20018;-75
2022/05/11 07:30:47;;;;;;;18.05;3.25;;;17.10;98.70;;;;;;6338601;22;20105;-73
2022/05/11 07:33:15;;;;;;;;;;;17.00;98.70;;;;;;6366087;22;20429;-73
2022/05/11 07:35:43;;;;;;;20.00;2.60;;;17.10;98.70;;;;;;6335446;22;20091;-73
2022/05/11 07:38:15;;;;;;;14.15;2.75;;;17.10;98.70;;;;;;6338008;22;20070;-73
2022/05/11 07:40:42;;;;;;;11.95;2.40;;;17.10;98.80;;;;;;6338105;22;20005;-75
2022/05/11 07:43:10;;;;;;;12.20;2.38;;;17.10;98.80;;;;;;6365705;22;20350;-75
2022/05/11 07:45:37;;;;;;;15.73;2.47;;;17.20;98.80;;;;;;6312335;22;20279;-75
2022/05/11 07:48:05;;;;;;;12.23;2.75;;;17.10;98.80;;;;;;6338055;22;20026;-77
2022/05/11 07:50:32;;;;;;;13.00;2.30;;;17.10;98.80;;;;;;6337533;22;20026;-76
2022/05/11 07:52:59;;;;;;;14.13;2.55;;;17.20;98.80;;;;;;6337163;22;20011;-75
2022/05/11 07:55:28;;;;;;;14.55;2.45;;;17.20;98.80;;;;;;6311939;22;20306;-77
2022/05/11 08:00:41;;;;;;;11.57;2.30;;;17.20;98.80;;;;;;6320901;22;20093;-77
2022/05/11 08:03:09;;;;;;;39.30;3.63;;;17.20;98.80;;;;;;6312077;22;20002;-78
2022/05/11 08:05:37;;;;;;;9.70;1.80;;;17.10;98.80;;;;;;6337506;22;20017;-77
2022/05/11 08:08:06;;;;;;;16.70;2.25;;;17.10;98.90;;;;;;6338838;22;20014;-77
2022/05/11 08:10:35;;;;;;;13.82;1.90;;;17.10;98.90;;;;;;6286040;22;20010;-78
2022/05/11 08:13:07;;;;;;;14.48;2.55;;;17.20;98.90;;;;;;6338355;22;20009;-77
2022/05/11 08:15:36;;;;;;;9.77;2.28;;;17.20;98.90;;;;;;6313994;22;20077;-76
2022/05/11 08:18:07;;;;;;;13.57;2.80;;;17.20;98.90;;;;;;6365431;22;20029;-77
2022/05/11 08:20:37;;;;;;;12.45;2.72;;;17.10;98.90;;;;;;6337502;22;19999;-77
2022/05/11 08:23:04;;;;;;;13.70;2.70;;;17.20;98.90;;;;;;6366057;22;20013;-77
2022/05/11 08:25:35;;;;;;;13.35;2.55;;;17.20;98.90;;;;;;6285621;22;20080;-78
2022/05/11 08:28:03;;;;;;;26.67;3.42;;;17.20;98.90;;;;;;6286287;22;20014;-75
2022/05/11 08:33:26;;;;;;;14.05;2.83;;;17.10;98.90;;;;;;6320232;22;20064;-77
2022/05/11 08:36:00;;;;;;;10.80;2.40;;;17.10;98.90;;;;;;6286335;22;20002;-76
2022/05/11 08:38:30;;;;;;;10.50;2.50;;;17.20;99.00;;;;;;6365165;22;20025;-77
2022/05/11 08:41:11;;;;;;;15.87;2.67;;;17.20;99.00;;;;;;6311646;22;20006;-78
2022/05/11 08:43:38;;;;;;;9.63;2.42;;;17.20;99.00;;;;;;6336734;22;20447;-77
2022/05/11 08:46:27;;;;;;;15.48;2.88;;;17.20;99.00;;;;;;6310525;22;20054;-78
2022/05/11 08:49:03;;;;;;;11.05;3.50;;;17.20;98.90;;;;;;6364595;22;20025;-78
2022/05/11 08:51:38;;;;;;;12.48;4.10;;;17.20;99.00;;;;;;6364641;22;20071;-78
2022/05/11 08:54:26;;;;;;;17.45;4.15;;;17.20;99.00;;;;;;6307902;22;20079;-77
2022/05/11 08:56:55;;;;;;;16.35;3.90;;;17.20;99.00;;;;;;6339268;22;20002;-77
2022/05/11 08:59:24;;;;;;;14.75;3.08;;;17.10;99.00;;;;;;6311254;22;19998;-78
2022/05/11 09:01:54;;;;;;;15.07;2.92;;;17.20;99.00;;;;;;6310674;22;20002;-76
2022/05/11 09:04:46;;;;;;;19.60;3.25;;;17.10;99.00;;;;;;6363532;22;20480;-77
2022/05/11 09:07:14;;;;;;;13.25;2.30;;;17.10;99.00;;;;;;6339980;22;20036;-77
2022/05/11 09:09:41;;;;;;;15.15;2.78;;;17.10;99.00;;;;;;6310658;22;19998;-77
2022/05/11 09:12:10;;;;;;;16.70;2.10;;;17.00;99.00;;;;;;6364175;22;20002;-78
2022/05/11 09:14:40;;;;;;;14.18;2.00;;;17.00;99.00;;;;;;6311369;22;19999;-78
2022/05/11 09:17:23;;;;;;;12.10;2.30;;;17.10;99.00;;;;;;6309849;22;20007;-78
2022/05/11 09:20:05;;;;;;;13.18;1.60;;;17.10;99.00;;;;;;6364256;22;20006;-79
2022/05/11 09:22:34;;;;;;;16.63;2.58;;;17.10;99.00;;;;;;6309395;22;20353;-76
2022/05/11 09:25:08;;;;;;;18.92;2.00;;;17.10;99.00;;;;;;6309339;22;20337;-75
2022/05/11 09:27:37;;;;;;;9.65;1.60;;;17.10;99.10;;;;;;6310317;22;20018;-73
2022/05/11 09:30:07;;;;;;;14.93;1.77;;;17.10;99.10;;;;;;6283589;22;20006;-74
2022/05/11 09:32:38;;;;;;;12.43;1.48;;;17.10;99.10;;;;;;6336603;22;20018;-75
2022/05/11 09:35:16;;;;;;;;;;;17.20;99.10;;;;;;6364923;22;20002;-73
2022/05/11 09:37:44;;;;;;;11.35;1.35;;;17.20;99.10;;;;;;6362905;22;19906;-74
2022/05/11 09:40:20;;;;;;;14.77;1.80;;;17.20;99.10;;;;;;6337336;22;20079;-74
2022/05/11 09:42:59;;;;;;;11.32;2.30;;;17.20;99.10;;;;;;6364572;22;20072;-75
2022/05/11 09:45:48;;;;;;;21.38;2.22;;;17.20;99.10;;;;;;6311385;22;20010;-75
2022/05/11 09:48:22;;;;;;;20.65;1.88;;;17.20;99.10;;;;;;6337262;22;20017;-77
2022/05/11 09:50:54;;;;;;;8.90;1.33;;;17.20;99.20;;;;;;6337637;22;20036;-75
2022/05/11 09:53:29;;;;;;;11.57;1.70;;;17.20;99.10;;;;;;6337954;22;20002;-74
2022/05/11 09:55:56;;;;;;;12.57;1.58;;;17.30;99.20;;;;;;6337054;22;20007;-76
2022/05/11 09:58:29;;;;;;;9.48;1.50;;;17.30;99.20;;;;;;6311118;22;20003;-77
2022/05/11 10:01:14;;;;;;;14.02;1.70;;;17.30;99.20;;;;;;6337189;22;20075;-78
2022/05/11 10:04:03;;;;;;;10.20;1.38;;;17.30;99.20;;;;;;6314459;22;20415;-76
2022/05/11 10:06:38;;;;;;;12.83;1.73;;;17.30;99.20;;;;;;6291108;22;20444;-77
2022/05/11 10:09:05;;;;;;;15.02;2.00;;;17.30;99.20;;;;;;6340564;22;20013;-77
2022/05/11 10:11:44;;;;;;;14.30;2.22;;;17.30;99.20;;;;;;6313644;22;20059;-79
2022/05/11 10:23:03;;;;;;;16.73;1.55;;;17.40;99.20;;;;;;6366065;22;20238;-73
2022/05/11 10:25:37;;;;;;;10.02;1.40;;;17.40;99.20;;;;;;6338562;22;20041;-78
2022/05/11 10:28:19;;;;;;;13.40;1.55;;;17.40;99.20;;;;;;6314173;22;20030;-77
2022/05/11 10:30:58;;;;;;;12.88;1.60;;;17.40;99.20;;;;;;6366772;22;20423;-77
2022/05/11 10:33:47;;;;;;;12.90;1.40;;;17.40;99.20;;;;;;6367188;22;20395;-78
2022/05/11 10:36:29;;;;;;;11.10;1.60;;;17.50;99.20;;;;;;6365188;22;20002;-76
2022/05/11 10:39:14;;;;;;;9.63;1.30;;;17.40;99.20;;;;;;6316468;22;20463;-79
2022/05/11 10:41:56;;;;;;;9.95;1.30;;;17.50;99.20;;;;;;6313257;22;20011;-81
2022/05/11 10:45:10;;;;;;;15.20;2.00;;;17.40;99.30;;;;;;6312440;22;20059;-81
2022/05/11 10:47:47;;;;;;;12.70;2.63;;;17.40;99.20;;;;;;6304965;22;20441;-80
2022/05/11 10:50:29;;;;;;;14.52;2.40;;;17.40;99.20;;;;;;6366259;22;20030;-81
2022/05/11 10:53:08;;;;;;;10.93;3.00;;;17.40;99.20;;;;;;6366020;22;20034;-81
2022/05/11 10:55:56;;;;;;;23.15;9.75;;;17.40;99.20;;;;;;6365947;22;20006;-80
2022/05/11 10:58:59;;;;;;;16.20;4.93;;;17.40;99.20;;;;;;6367445;22;20010;-80
2022/05/11 11:01:29;;;;;;;21.95;3.80;;;17.30;99.20;;;;;;6318883;22;20006;-78
2022/05/11 11:03:58;;;;;;;;;;;17.40;99.20;;;;;;6314302;22;20393;-78
2022/05/11 11:09:51;;;;;;;10.93;3.28;;;17.40;99.20;;;;;;6287415;22;20016;-78
2022/05/11 11:12:40;;;;;;;16.55;2.85;;;17.40;99.30;;;;;;6338491;22;20045;-78
2022/05/11 11:15:12;;;;;;;14.45;2.80;;;17.40;99.20;;;;;;6366663;22;20002;-77
2022/05/11 11:17:40;;;;;;;19.77;2.80;;;17.40;99.30;;;;;;6313767;22;20010;-77
2022/05/11 11:20:08;;;;;;;15.15;3.15;;;17.40;99.30;;;;;;6312366;22;20098;-78
2022/05/11 11:23:17;;;;;;;12.23;2.97;;;17.30;99.20;;;;;;6313475;22;20003;-76
2022/05/11 11:25:53;;;;;;;15.43;3.17;;;17.30;99.30;;;;;;6318061;22;20037;-79
2022/05/11 11:28:49;;;;;;;16.33;3.15;;;17.30;99.20;;;;;;6337980;22;20014;-79
2022/05/11 11:31:18;;;;;;;20.73;3.00;;;17.30;99.20;;;;;;6240491;22;20018;-80
2022/05/11 11:33:54;;;;;;;21.83;3.30;;;17.30;99.20;;;;;;6333491;22;20003;-79
2022/05/11 11:36:33;;;;;;;14.77;3.03;;;17.30;99.30;;;;;;6332469;22;20029;-80
2022/05/11 11:39:01;;;;;;;19.88;4.63;;;17.30;99.20;;;;;;6281476;22;20074;-79
2022/05/11 11:41:51;;;;;;;15.07;3.30;;;17.30;99.20;;;;;;6307188;22;20092;-79
2022/05/11 11:44:31;;;;;;;17.65;3.53;;;17.30;99.30;;;;;;6312343;22;20386;-80
2022/05/11 11:47:01;;;;;;;14.38;3.03;;;17.30;99.30;;;;;;6307872;22;20107;-80
2022/05/11 11:49:27;;;;;;;;;;;17.30;99.30;;;;;;6308541;22;20002;-79
2022/05/11 11:52:03;;;;;;;20.92;3.58;;;17.30;99.30;;;;;;6333916;22;19903;-80
2022/05/11 11:54:38;;;;;;;19.42;2.40;;;17.30;99.30;;;;;;6307027;22;20006;-80
2022/05/11 11:57:23;;;;;;;21.90;2.33;;;17.30;99.30;;;;;;6333475;22;20003;-80
2022/05/11 11:59:51;;;;;;;14.73;2.85;;;17.30;99.30;;;;;;6334695;22;20010;-80
2022/05/11 12:02:37;;;;;;;18.88;2.60;;;17.30;99.30;;;;;;6332973;22;20496;-80
2022/05/11 12:05:27;;;;;;;12.07;2.25;;;17.30;99.30;;;;;;6334237;22;20002;-77
2022/05/11 12:16:58;;;;;;;14.43;1.90;;;17.30;99.30;;;;;;6270149;22;20017;-79
2022/05/11 12:19:31;;;;;;;15.45;2.15;;;17.30;99.30;;;;;;6306642;22;20341;-81
2022/05/11 12:22:04;;;;;;;20.45;2.50;;;17.30;99.30;;;;;;6307493;22;20082;-80
2022/05/11 12:24:36;;;;;;;21.10;2.30;;;17.30;99.30;;;;;;6333700;22;20036;-80
2022/05/11 12:27:05;;;;;;;18.02;3.28;;;17.20;99.30;;;;;;6332191;22;20007;-79
2022/05/11 12:32:25;;;;;;;15.75;2.15;;;17.30;99.30;;;;;;6332910;22;20107;-77
2022/05/11 12:34:53;;;;;;;13.63;2.08;;;17.20;99.30;;;;;;6334097;22;20879;-78
2022/05/11 12:37:30;;;;;;;13.35;1.90;;;17.20;99.30;;;;;;6278417;22;20006;-77
2022/05/11 12:39:57;;;;;;;15.60;2.08;;;17.20;99.30;;;;;;6332082;22;20074;-78
2022/05/11 12:42:28;;;;;;;16.35;2.35;;;17.20;99.30;;;;;;6331609;22;20026;-78
2022/05/11 12:44:56;;;;;;;11.75;2.20;;;17.20;99.30;;;;;;6332433;22;20002;-78
2022/05/11 12:47:23;;;;;;;13.50;2.03;;;17.20;99.30;;;;;;6305912;22;20015;-78
2022/05/11 12:49:50;;;;;;;12.13;2.00;;;17.20;99.30;;;;;;6306594;22;20002;-79
2022/05/11 12:52:18;;;;;;;16.83;2.63;;;17.20;99.30;;;;;;6332499;22;20341;-79
2022/05/11 12:55:00;;;;;;;19.73;3.20;;;17.20;99.30;;;;;;6306266;22;20380;-79
2022/05/11 12:57:38;;;;;;;15.68;2.67;;;17.20;99.30;;;;;;6306892;22;20337;-79
2022/05/11 13:00:17;;;;;;;22.95;2.38;;;17.20;99.30;;;;;;6332329;22;20070;-79
2022/05/11 13:02:45;;;;;;;16.88;2.50;;;17.20;99.30;;;;;;6280984;22;20010;-78
2022/05/11 13:05:18;;;;;;;15.00;2.60;;;17.20;99.30;;;;;;6306460;22;19995;-78
2022/05/11 13:07:59;;;;;;;20.58;2.47;;;17.20;99.30;;;;;;6306126;22;20014;-76
2022/05/11 13:10:30;;;;;;;18.92;2.20;;;17.20;99.30;;;;;;6306087;22;20327;-79
2022/05/11 13:12:58;;;;;;;14.98;2.35;;;17.20;99.30;;;;;;6282165;22;20006;-78
2022/05/11 13:15:37;;;;;;;18.73;2.25;;;17.10;99.30;;;;;;6310445;22;20413;-78
2022/05/11 13:18:05;;;;;;;15.60;2.60;;;17.10;99.30;;;;;;6336065;22;20003;-79
2022/05/11 13:20:38;;;;;;;14.27;2.10;;;17.10;99.30;;;;;;6310253;22;19998;-78
2022/05/11 13:23:30;;;;;;;10.80;2.25;;;17.10;99.30;;;;;;6310558;22;20002;-79
2022/05/11 13:25:59;;;;;;;20.70;3.22;;;17.10;99.30;;;;;;6299169;22;20015;-78
2022/05/11 13:28:30;;;;;;;13.02;2.63;;;17.10;99.30;;;;;;6310906;22;20465;-79
2022/05/11 13:31:03;;;;;;;13.38;2.65;;;17.10;99.30;;;;;;6309436;22;20050;-79
2022/05/11 13:33:30;;;;;;;18.20;2.55;;;17.10;99.30;;;;;;6310561;22;20433;-79
2022/05/11 13:36:17;;;;;;;15.60;2.55;;;17.10;99.30;;;;;;6337110;22;20010;-79
2022/05/11 13:39:03;;;;;;;12.35;1.98;;;17.10;99.30;;;;;;6335746;22;20003;-79
2022/05/11 13:41:37;;;;;;;12.38;1.70;;;17.10;99.40;;;;;;6336012;22;20005;-79
2022/05/11 13:44:15;;;;;;;15.43;2.20;;;17.10;99.30;;;;;;6335858;22;20009;-79